createdAt,value
2022-08-16T00:01:04.025Z,100717.97
2022-08-16T00:03:37.774Z,100710.63
2022-08-16T00:06:04.946Z,100716.94
2022-08-16T00:08:37.183Z,100712.84
2022-08-16T00:11:08.242Z,100704.47
2022-08-16T00:13:42.617Z,100693.56
2022-08-16T00:17:11.403Z,100716.06
2022-08-16T00:18:56.555Z,100701.75
2022-08-16T00:21:25.165Z,100705.78
2022-08-16T00:23:52.045Z,100703.34
2022-08-16T00:26:36.130Z,100698.03
2022-08-16T00:29:05.717Z,100700.53
2022-08-16T00:31:59.903Z,100700.34
2022-08-16T00:34:20.441Z,100701.56
2022-08-16T00:36:47.639Z,100690.88
2022-08-16T00:39:15.729Z,100703.56
2022-08-16T00:41:44.020Z,100706.59
2022-08-16T00:44:13.598Z,100705.78
2022-08-16T00:46:52.920Z,100705.75
2022-08-16T00:49:29.462Z,100709.63
2022-08-16T00:52:30.286Z,100702.50
2022-08-16T00:54:53.462Z,100698.81
2022-08-16T00:57:20.337Z,100701.47
2022-08-16T00:59:54.843Z,100680.81
2022-08-16T01:02:30.217Z,100687.56
2022-08-16T01:05:09.503Z,100700.44
2022-08-16T01:07:51.135Z,100697.34
2022-08-16T01:10:31.374Z,100693.44
2022-08-16T01:13:00.939Z,100669.72
2022-08-16T01:15:27.803Z,100676.63
2022-08-16T01:17:57.157Z,100674.34
2022-08-16T01:20:30.176Z,100669.59
2022-08-16T01:23:24.619Z,100670.31
2022-08-16T01:25:59.865Z,100664.19
2022-08-16T01:28:30.844Z,100659.88
2022-08-16T01:30:58.698Z,100667.97
2022-08-16T01:33:25.518Z,100666.72
2022-08-16T01:36:11.521Z,100654.44
2022-08-16T01:38:48.880Z,100666.94
2022-08-16T01:41:21.050Z,100658.09
2022-08-16T01:43:53.697Z,100667.47
2022-08-16T01:46:31.150Z,100668.28
2022-08-16T01:49:45.702Z,100650.97
2022-08-16T01:52:28.271Z,100658.53
2022-08-16T01:54:57.787Z,100663.97
2022-08-16T01:57:24.836Z,100660.44
2022-08-16T01:59:52.254Z,100659.19
2022-08-16T02:02:27.192Z,100642.31
2022-08-16T02:04:56.126Z,100659.72
2022-08-16T02:07:24.523Z,100657.06
2022-08-16T02:09:58.658Z,100648.47
2022-08-16T02:12:51.725Z,100666.91
2022-08-16T02:15:17.133Z,100667.13
2022-08-16T02:17:52.577Z,100650.31
2022-08-16T02:20:19.865Z,100663.09
2022-08-16T02:22:55.356Z,100657.78
2022-08-16T02:25:22.404Z,100661.25
2022-08-16T02:27:51.187Z,100668.59
2022-08-16T02:30:35.733Z,100659.81
2022-08-16T02:33:04.569Z,100658.38
2022-08-16T02:35:32.738Z,100656.31
2022-08-16T02:38:01.745Z,100622.91
2022-08-16T02:40:35.830Z,100643.38
2022-08-16T02:43:02.905Z,100655.28
2022-08-16T02:45:29.795Z,100647.66
2022-08-16T02:48:01.618Z,100649.72
2022-08-16T02:50:54.493Z,100659.13
2022-08-16T02:53:30.800Z,100649.13
2022-08-16T02:55:57.963Z,100650.50
2022-08-16T02:58:26.945Z,100644.56
2022-08-16T03:00:56.031Z,100655.81
2022-08-16T03:03:25.070Z,100647.22
2022-08-16T03:05:53.177Z,100629.06
2022-08-16T03:08:52.469Z,100658.84
2022-08-16T03:11:16.659Z,100654.34
2022-08-16T03:13:51.171Z,100652.72
2022-08-16T03:16:38.470Z,100636.72
2022-08-16T03:19:06.300Z,100653.09
2022-08-16T03:21:37.822Z,100651.63
2022-08-16T03:24:28.995Z,100649.81
2022-08-16T03:26:57.711Z,100641.69
2022-08-16T03:29:30.295Z,100638.59
2022-08-16T03:31:58.968Z,100606.81
2022-08-16T03:34:27.522Z,100653.34
2022-08-16T03:36:55.026Z,100652.31
2022-08-16T03:39:22.272Z,100652.16
2022-08-16T03:41:51.270Z,100642.06
2022-08-16T03:44:44.241Z,100666.03
2022-08-16T03:47:19.122Z,100655.44
2022-08-16T03:49:51.961Z,100660.59
2022-08-16T03:52:23.365Z,100676.53
2022-08-16T03:54:57.610Z,100669.59
2022-08-16T03:57:32.210Z,100679.84
2022-08-16T04:00:35.848Z,100679.91
2022-08-16T04:03:08.864Z,100674.66
2022-08-16T04:05:37.754Z,100671.94
2022-08-16T04:08:22.763Z,100671.88
2022-08-16T04:10:52.838Z,100674.03
2022-08-16T04:13:20.202Z,100676.72
2022-08-16T04:15:48.145Z,100673.09
2022-08-16T04:18:20.097Z,100678.25
2022-08-16T04:20:49.516Z,100672.97
2022-08-16T04:23:16.500Z,100687.56
2022-08-16T04:25:43.537Z,100694.34
2022-08-16T04:28:29.283Z,100690.28
2022-08-16T04:31:00.937Z,100687.47
2022-08-16T04:33:27.840Z,100691.56
2022-08-16T04:35:55.139Z,100691.97
2022-08-16T04:38:22.000Z,100680.25
2022-08-16T04:40:50.183Z,100687.06
2022-08-16T04:43:18.007Z,100699.44
2022-08-16T04:45:45.739Z,100690.31
2022-08-16T04:48:28.575Z,100702.38
2022-08-16T04:51:00.119Z,100690.31
2022-08-16T04:53:28.761Z,100699.91
2022-08-16T04:55:55.920Z,100679.78
2022-08-16T04:58:44.800Z,100701.50
2022-08-16T05:01:09.644Z,100701.13
2022-08-16T05:03:41.926Z,100702.38
2022-08-16T05:06:45.584Z,100698.31
2022-08-16T05:09:10.765Z,100691.25
2022-08-16T05:11:38.779Z,100702.56
2022-08-16T05:14:06.923Z,100695.69
2022-08-16T05:16:34.204Z,100694.22
2022-08-16T05:19:02.363Z,100700.09
2022-08-16T05:21:38.542Z,100691.88
2022-08-16T05:24:07.070Z,100695.91
2022-08-16T05:26:34.358Z,100701.69
2022-08-16T05:29:04.461Z,100703.19
2022-08-16T05:31:31.562Z,100705.41
2022-08-16T05:34:03.336Z,100702.44
2022-08-16T05:36:34.279Z,100699.88
2022-08-16T05:39:05.439Z,100707.69
2022-08-16T05:41:32.795Z,100713.66
2022-08-16T05:44:23.248Z,100705.03
2022-08-16T05:46:53.241Z,100704.28
2022-08-16T05:49:22.599Z,100701.78
2022-08-16T05:51:50.362Z,100697.94
2022-08-16T05:54:25.519Z,100690.50
2022-08-16T05:56:53.005Z,100700.16
2022-08-16T05:59:19.939Z,100699.22
2022-08-16T06:01:50.791Z,100699.88
2022-08-16T06:04:36.078Z,100704.22
2022-08-16T06:07:09.137Z,100698.53
2022-08-16T06:09:52.624Z,100699.25
2022-08-16T06:12:27.139Z,100661.34
2022-08-16T06:15:04.373Z,100695.28
2022-08-16T06:17:41.416Z,100690.06
2022-08-16T06:20:24.337Z,100698.50
2022-08-16T06:23:03.289Z,100692.53
2022-08-16T06:25:36.335Z,100694.72
2022-08-16T06:28:17.251Z,100698.56
2022-08-16T06:31:03.597Z,100698.06
2022-08-16T06:33:41.163Z,100700.72
2022-08-16T06:36:14.826Z,100704.28
2022-08-16T06:38:52.323Z,100695.06
2022-08-16T06:41:28.056Z,100709.41
2022-08-16T06:44:21.379Z,100710.19
2022-08-16T06:46:55.247Z,100692.38
2022-08-16T06:49:25.354Z,100701.59
2022-08-16T06:52:04.533Z,100705.59
2022-08-16T06:54:37.334Z,100705.59
2022-08-16T06:57:11.812Z,100700.22
2022-08-16T06:59:52.261Z,100721.00
2022-08-16T07:02:33.033Z,100715.81
2022-08-16T07:05:02.334Z,100725.44
2022-08-16T07:07:34.362Z,100722.63
2022-08-16T07:10:09.015Z,100727.66
2022-08-16T07:12:47.374Z,100715.31
2022-08-16T07:15:33.536Z,100726.34
2022-08-16T07:18:04.836Z,100715.09
2022-08-16T07:20:47.653Z,100715.16
2022-08-16T07:23:18.111Z,100721.78
2022-08-16T07:25:49.712Z,100725.97
2022-08-16T07:28:24.786Z,100714.97
2022-08-16T07:30:53.771Z,100730.06
2022-08-16T07:33:52.984Z,100721.56
2022-08-16T07:36:22.114Z,100718.25
2022-08-16T07:38:49.565Z,100718.44
2022-08-16T07:41:17.338Z,100717.31
2022-08-16T07:43:47.471Z,100718.69
2022-08-16T07:46:39.460Z,100729.38
2022-08-16T07:49:02.951Z,100725.91
2022-08-16T07:51:37.062Z,100726.56
2022-08-16T07:54:09.937Z,100727.81
2022-08-16T07:56:37.851Z,100721.28
2022-08-16T07:59:05.739Z,100727.41
2022-08-16T08:01:32.922Z,100727.84
2022-08-16T08:04:01.223Z,100742.91
2022-08-16T08:06:29.697Z,100747.84
2022-08-16T08:08:59.395Z,100747.59
2022-08-16T08:11:28.280Z,100751.84
2022-08-16T08:13:56.600Z,100746.00
2022-08-16T08:16:30.769Z,100744.75
2022-08-16T08:19:00.700Z,100746.47
2022-08-16T08:22:00.081Z,100742.00
2022-08-16T08:24:15.526Z,100750.75
2022-08-16T08:26:42.921Z,100749.28
2022-08-16T08:29:09.974Z,100751.00
2022-08-16T08:31:42.373Z,100738.81
2022-08-16T08:34:09.526Z,100747.47
2022-08-16T08:36:40.126Z,100739.16
2022-08-16T08:39:13.291Z,100733.03
2022-08-16T08:41:42.514Z,100750.97
2022-08-16T08:44:28.897Z,100737.03
2022-08-16T08:47:03.299Z,100734.56
2022-08-16T08:49:55.015Z,100738.25
2022-08-16T08:52:33.617Z,100730.84
2022-08-16T08:55:05.068Z,100726.88
2022-08-16T08:57:37.605Z,100731.53
2022-08-16T09:00:13.244Z,100736.31
2022-08-16T09:02:43.072Z,100730.38
2022-08-16T09:05:15.209Z,100725.28
2022-08-16T09:08:00.210Z,100725.38
2022-08-16T09:10:29.474Z,100723.13
2022-08-16T09:12:57.588Z,100727.47
2022-08-16T09:15:24.550Z,100713.44
2022-08-16T09:17:54.598Z,100710.84
2022-08-16T09:20:23.782Z,100716.00
2022-08-16T09:22:52.949Z,100715.81
2022-08-16T09:25:26.421Z,100715.63
2022-08-16T09:28:02.704Z,100703.63
2022-08-16T09:30:43.120Z,100714.78
2022-08-16T09:33:10.646Z,100702.13
2022-08-16T09:35:39.074Z,100709.88
2022-08-16T09:38:08.412Z,100702.63
2022-08-16T09:40:42.782Z,100704.88
2022-08-16T09:43:21.075Z,100705.13
2022-08-16T09:45:58.459Z,100704.00
2022-08-16T09:48:44.282Z,100697.59
2022-08-16T09:51:13.943Z,100690.72
2022-08-16T09:53:40.980Z,100698.75
2022-08-16T09:56:17.851Z,100694.44
2022-08-16T09:59:05.271Z,100696.47
2022-08-16T10:01:32.006Z,100694.34
2022-08-16T10:04:02.864Z,100686.63
2022-08-16T10:06:33.265Z,100692.84
2022-08-16T10:09:06.319Z,100682.53
2022-08-16T10:11:54.266Z,100688.41
2022-08-16T10:14:24.650Z,100694.69
2022-08-16T10:17:04.317Z,100694.47
2022-08-16T10:19:31.969Z,100697.38
2022-08-16T10:21:59.863Z,100700.25
2022-08-16T10:24:32.721Z,100696.34
2022-08-16T10:27:26.060Z,100696.53
2022-08-16T10:30:01.365Z,100691.00
2022-08-16T10:32:34.322Z,100697.69
2022-08-16T10:35:03.352Z,100703.47
2022-08-16T10:37:41.884Z,100695.00
2022-08-16T10:40:29.652Z,100688.41
2022-08-16T10:43:00.284Z,100695.81
2022-08-16T10:45:28.710Z,100691.97
2022-08-16T10:48:04.408Z,100684.50
2022-08-16T10:50:32.530Z,100682.91
2022-08-16T10:53:00.074Z,100697.31
2022-08-16T10:55:41.104Z,100685.59
2022-08-16T10:58:13.636Z,100690.25
2022-08-16T11:00:46.303Z,100695.41
2022-08-16T11:06:05.939Z,100685.63
2022-08-16T11:08:36.067Z,100681.00
2022-08-16T11:11:12.919Z,100683.91
2022-08-16T11:14:10.859Z,100678.59
2022-08-16T11:19:20.503Z,100676.81
2022-08-16T11:24:43.361Z,100684.47
2022-08-16T11:27:23.382Z,100687.28
2022-08-16T11:29:52.930Z,100683.13
2022-08-16T11:32:29.828Z,100679.59
2022-08-16T11:35:16.199Z,100686.00
2022-08-16T11:38:47.605Z,100679.97
2022-08-16T11:40:44.129Z,100678.47
2022-08-16T11:43:13.041Z,100666.00
2022-08-16T11:45:43.975Z,100675.34
2022-08-16T11:48:22.074Z,100677.66
2022-08-16T11:50:49.386Z,100675.88
2022-08-16T11:53:17.303Z,100675.28
2022-08-16T11:55:44.736Z,100670.81
2022-08-16T11:58:11.665Z,100670.78
2022-08-16T12:00:51.897Z,100676.56
2022-08-16T12:03:24.996Z,100668.16
2022-08-16T12:05:59.337Z,100665.97
2022-08-16T12:08:27.188Z,100666.53
2022-08-16T12:10:54.341Z,100662.31
2022-08-16T12:13:26.537Z,100663.78
2022-08-16T12:15:53.589Z,100666.97
2022-08-16T12:18:21.562Z,100670.66
2022-08-16T12:20:48.671Z,100648.03
2022-08-16T12:23:15.579Z,100670.00
2022-08-16T12:25:44.436Z,100660.22
2022-08-16T12:28:12.202Z,100655.69
2022-08-16T12:30:41.244Z,100652.03
2022-08-16T12:33:09.279Z,100658.81
2022-08-16T12:35:36.949Z,100658.53
2022-08-16T12:38:08.851Z,100653.19
2022-08-16T12:40:53.112Z,100644.44
2022-08-16T12:43:23.560Z,100637.69
2022-08-16T12:45:52.159Z,100653.81
2022-08-16T12:48:40.067Z,100645.84
2022-08-16T12:51:19.975Z,100648.75
2022-08-16T12:53:52.318Z,100647.56
2022-08-16T12:56:20.241Z,100649.19
2022-08-16T12:58:51.511Z,100645.25
2022-08-16T13:01:25.686Z,100618.72
2022-08-16T13:04:11.804Z,100631.84
2022-08-16T13:06:43.225Z,100626.31
2022-08-16T13:09:26.485Z,100619.34
2022-08-16T13:12:15.793Z,100619.75
2022-08-16T13:14:43.524Z,100616.44
2022-08-16T13:17:18.542Z,100629.44
2022-08-16T13:22:34.017Z,100623.19
2022-08-16T13:25:01.044Z,100605.97
2022-08-16T13:28:14.888Z,100605.88
2022-08-16T13:30:36.375Z,100601.13
2022-08-16T13:33:11.234Z,100591.75
2022-08-16T13:35:42.977Z,100586.56
2022-08-16T13:38:21.628Z,100588.63
2022-08-16T13:40:56.701Z,100578.84
2022-08-16T13:43:28.895Z,100568.44
2022-08-16T13:46:04.243Z,100562.34
2022-08-16T13:48:42.533Z,100562.09
2022-08-16T13:51:17.138Z,100566.91
2022-08-16T13:53:54.734Z,100567.53
2022-08-16T13:56:36.860Z,100572.28
2022-08-16T13:59:06.200Z,100565.81
2022-08-16T14:01:45.194Z,100561.50
2022-08-16T14:04:18.999Z,100564.34
2022-08-16T14:06:53.238Z,100561.13
2022-08-16T14:09:21.738Z,100562.41
2022-08-16T14:11:49.517Z,100566.53
2022-08-16T14:14:28.775Z,100563.53
2022-08-16T14:17:00.103Z,100572.28
2022-08-16T14:19:29.593Z,100577.84
2022-08-16T14:22:14.511Z,100586.16
2022-08-16T14:24:46.986Z,100586.38
2022-08-16T14:27:18.045Z,100563.94
2022-08-16T14:29:49.450Z,100595.44
2022-08-16T14:32:33.441Z,100592.06
2022-08-16T14:35:11.383Z,100612.38
2022-08-16T14:37:38.707Z,100608.69
2022-08-16T14:40:06.561Z,100625.44
2022-08-16T14:42:33.515Z,100623.56
2022-08-16T14:45:04.660Z,100613.31
2022-08-16T14:47:34.784Z,100625.22
2022-08-16T14:50:02.833Z,100635.44
2022-08-16T14:55:19.596Z,100653.00
2022-08-16T14:57:47.578Z,100659.19
2022-08-16T15:00:15.817Z,100662.97
2022-08-16T15:02:45.211Z,100657.31
2022-08-16T15:05:12.947Z,100670.78
2022-08-16T15:07:41.379Z,100688.78
2022-08-16T15:10:21.752Z,100695.50
2022-08-16T15:12:56.294Z,100726.00
2022-08-16T15:15:26.440Z,100723.97
2022-08-16T15:17:54.019Z,100735.56
2022-08-16T15:20:26.102Z,100749.38
2022-08-16T15:22:53.121Z,100768.22
2022-08-16T15:25:36.397Z,100770.84
2022-08-16T15:28:23.387Z,100769.13
2022-08-16T15:30:59.913Z,100789.41
2022-08-16T15:33:27.679Z,100787.81
2022-08-16T15:35:55.567Z,100808.16
2022-08-16T15:38:55.149Z,100831.03
2022-08-16T15:41:29.288Z,100860.53
2022-08-16T15:44:03.503Z,100896.69
2022-08-16T15:46:56.223Z,100832.84
2022-08-16T15:49:25.084Z,100839.00
2022-08-16T15:51:59.420Z,100834.22
2022-08-16T15:54:30.919Z,100811.78
2022-08-16T15:57:11.863Z,100838.22
2022-08-16T15:59:48.631Z,100831.91
2022-08-16T16:02:27.701Z,100829.81
2022-08-16T16:05:07.446Z,100830.44
2022-08-16T16:07:37.459Z,100818.50
2022-08-16T16:10:13.363Z,100803.69
2022-08-16T16:12:53.908Z,100785.84
2022-08-16T16:15:24.525Z,100766.09
2022-08-16T16:17:52.831Z,100760.53
2022-08-16T16:20:21.412Z,100767.28
2022-08-16T16:22:49.448Z,100760.50
2022-08-16T16:25:17.539Z,100763.41
2022-08-16T16:27:45.255Z,100752.97
2022-08-16T16:30:32.831Z,100762.66
2022-08-16T16:33:02.268Z,100766.75
2022-08-16T16:35:30.710Z,100767.13
2022-08-16T16:37:59.945Z,100759.72
2022-08-16T16:40:33.176Z,100765.47
2022-08-16T16:43:02.635Z,100756.47
2022-08-16T16:45:34.838Z,100754.38
2022-08-16T16:48:12.362Z,100773.28
2022-08-16T16:50:43.605Z,100785.34
2022-08-16T16:53:17.452Z,100793.94
2022-08-16T16:55:52.187Z,100806.84
2022-08-16T16:58:38.881Z,100819.38
2022-08-16T17:01:07.920Z,100826.38
2022-08-16T17:03:35.566Z,100827.00
2022-08-16T17:06:09.417Z,100812.22
2022-08-16T17:08:40.843Z,100805.47
2022-08-16T17:11:11.522Z,100802.59
2022-08-16T17:13:39.495Z,100817.13
2022-08-16T17:16:09.044Z,100821.84
2022-08-16T17:19:15.123Z,100823.94
2022-08-16T17:21:37.006Z,100840.13
2022-08-16T17:24:18.414Z,100839.13
2022-08-16T17:26:49.179Z,100843.25
2022-08-16T17:29:23.638Z,100830.19
2022-08-16T17:32:02.397Z,100826.28
2022-08-16T17:34:46.570Z,100825.53
2022-08-16T17:37:17.817Z,100840.69
2022-08-16T17:40:00.115Z,100823.69
2022-08-16T17:42:28.036Z,100825.94
2022-08-16T17:44:55.015Z,100828.59
2022-08-16T17:47:22.362Z,100837.41
2022-08-16T17:49:49.377Z,100827.97
2022-08-16T17:52:16.939Z,100822.22
2022-08-16T17:54:44.295Z,100830.41
2022-08-16T17:57:11.697Z,100831.03
2022-08-16T17:59:41.256Z,100822.44
2022-08-16T18:02:42.166Z,100820.63
2022-08-16T18:04:55.881Z,100845.59
2022-08-16T18:07:23.031Z,100844.34
2022-08-16T18:09:52.313Z,100840.75
2022-08-16T18:12:51.194Z,100846.22
2022-08-16T18:15:12.542Z,100845.41
2022-08-16T18:17:39.752Z,100845.03
2022-08-16T18:20:08.142Z,100827.22
2022-08-16T18:22:34.956Z,100838.25
2022-08-16T18:25:01.882Z,100837.88
2022-08-16T18:27:32.727Z,100852.84
2022-08-16T18:29:59.870Z,100811.31
2022-08-16T18:32:28.385Z,100839.94
2022-08-16T18:34:55.343Z,100850.22
2022-08-16T18:37:24.787Z,100838.38
2022-08-16T18:39:51.695Z,100834.50
2022-08-16T18:42:18.796Z,100851.03
2022-08-16T18:44:45.759Z,100847.16
2022-08-16T18:47:12.663Z,100849.59
2022-08-16T18:49:39.577Z,100837.56
2022-08-16T18:52:06.662Z,100842.47
2022-08-16T18:54:33.883Z,100832.41
2022-08-16T18:57:20.737Z,100836.91
2022-08-16T18:59:47.785Z,100831.59
2022-08-16T19:02:57.021Z,100845.91
2022-08-16T19:05:12.240Z,100843.88
2022-08-16T19:07:39.205Z,100840.38
2022-08-16T19:10:06.713Z,100850.22
2022-08-16T19:12:38.603Z,100858.22
2022-08-16T19:15:18.138Z,100842.28
2022-08-16T19:17:45.889Z,100845.34
2022-08-16T19:20:14.360Z,100849.84
2022-08-16T19:25:46.395Z,100852.34
2022-08-16T19:28:50.094Z,100826.75
2022-08-16T19:31:18.260Z,100858.50
2022-08-16T19:33:53.123Z,100836.38
2022-08-16T19:36:31.456Z,100874.88
2022-08-16T19:39:04.957Z,100872.63
2022-08-16T19:41:36.997Z,100871.59
2022-08-16T19:44:04.864Z,100866.69
2022-08-16T19:46:32.003Z,100867.28
2022-08-16T19:48:58.955Z,100871.81
2022-08-16T19:51:25.913Z,100862.59
2022-08-16T19:53:52.830Z,100869.34
2022-08-16T19:56:23.040Z,100866.50
2022-08-16T19:59:17.443Z,100869.78
2022-08-16T20:01:41.882Z,100895.34
2022-08-16T20:04:12.543Z,100900.06
2022-08-16T20:06:40.687Z,100891.28
2022-08-16T20:09:07.563Z,100898.63
2022-08-16T20:11:35.257Z,100882.06
2022-08-16T20:14:02.696Z,100864.66
2022-08-16T20:16:29.947Z,100887.78
2022-08-16T20:18:56.941Z,100900.06
2022-08-16T20:21:24.412Z,100901.53
2022-08-16T20:23:51.498Z,100909.69
2022-08-16T20:26:19.011Z,100896.38
2022-08-16T20:28:54.050Z,100894.94
2022-08-16T20:31:24.900Z,100895.38
2022-08-16T20:33:52.314Z,100885.13
2022-08-16T20:36:19.223Z,100912.16
2022-08-16T20:38:47.866Z,100892.72
2022-08-16T20:41:16.240Z,100897.81
2022-08-16T20:43:43.542Z,100906.63
2022-08-16T20:46:12.622Z,100907.44
2022-08-16T20:48:39.952Z,100931.63
2022-08-16T20:51:10.598Z,100929.53
2022-08-16T20:53:41.182Z,100931.22
2022-08-16T20:56:08.720Z,100926.28
2022-08-16T20:58:35.739Z,100933.03
2022-08-16T21:01:03.138Z,100933.66
2022-08-16T21:03:30.139Z,100926.28
2022-08-16T21:05:58.074Z,100933.03
2022-08-16T21:08:50.157Z,100927.91
2022-08-16T21:11:11.799Z,100929.16
2022-08-16T21:13:42.898Z,100933.03
2022-08-16T21:16:10.057Z,100923.41
2022-08-16T21:18:36.920Z,100929.16
2022-08-16T21:21:03.921Z,100935.09
2022-08-16T21:23:30.970Z,100934.88
2022-08-16T21:25:59.678Z,100926.47
2022-08-16T21:28:42.885Z,100934.06
2022-08-16T21:31:11.776Z,100926.28
2022-08-16T21:33:38.944Z,100942.44
2022-08-16T21:36:06.086Z,100941.00
2022-08-16T21:38:33.162Z,100937.13
2022-08-16T21:41:03.787Z,100931.78
2022-08-16T21:43:32.981Z,100941.44
2022-08-16T21:46:01.190Z,100934.06
2022-08-16T21:48:32.645Z,100946.09
2022-08-16T21:51:08.967Z,100930.97
2022-08-16T21:53:35.891Z,100940.56
2022-08-16T21:56:02.961Z,100945.47
2022-08-16T21:58:30.167Z,100938.94
2022-08-16T22:00:57.279Z,100939.09
2022-08-16T22:03:24.326Z,100928.47
2022-08-16T22:06:13.428Z,100941.13
2022-08-16T22:08:50.574Z,100938.22
2022-08-16T22:11:24.528Z,100947.81
2022-08-16T22:13:57.592Z,100929.75
2022-08-16T22:16:27.812Z,100952.88
2022-08-16T22:18:54.706Z,100931.19
2022-08-16T22:21:21.658Z,100944.69
2022-08-16T22:23:55.286Z,100921.28
2022-08-16T22:26:30.689Z,100942.78
2022-08-16T22:29:03.486Z,100928.63
2022-08-16T22:31:31.126Z,100943.19
2022-08-16T22:33:58.204Z,100935.97
2022-08-16T22:36:28.113Z,100948.25
2022-08-16T22:38:59.400Z,100928.16
2022-08-16T22:41:27.559Z,100946.38
2022-08-16T22:43:54.461Z,100951.25
2022-08-16T22:46:21.535Z,100949.19
2022-08-16T22:48:51.185Z,100943.47
2022-08-16T22:51:19.040Z,100944.66
2022-08-16T22:53:46.020Z,100917.22
2022-08-16T22:56:13.183Z,100935.84
2022-08-16T22:58:40.066Z,100937.50
2022-08-16T23:01:07.965Z,100921.28
2022-08-16T23:03:35.169Z,100908.59
2022-08-16T23:06:02.118Z,100909.63
2022-08-16T23:08:32.180Z,100930.50
2022-08-16T23:11:06.167Z,100920.28
2022-08-16T23:13:34.933Z,100897.03
2022-08-16T23:16:10.532Z,100925.16
2022-08-16T23:18:40.077Z,100921.28
2022-08-16T23:21:09.186Z,100899.47
2022-08-16T23:23:36.257Z,100893.31
2022-08-16T23:26:03.274Z,100914.28
2022-08-16T23:28:50.161Z,100907.91
2022-08-16T23:31:18.151Z,100905.75
2022-08-16T23:33:45.970Z,100914.38
2022-08-16T23:36:12.959Z,100912.31
2022-08-16T23:38:40.077Z,100891.72
2022-08-16T23:41:09.184Z,100906.69
2022-08-16T23:43:44.419Z,100915.03
2022-08-16T23:46:16.952Z,100916.09
2022-08-16T23:49:58.643Z,100905.22
2022-08-16T23:51:31.921Z,100913.25
2022-08-16T23:53:59.079Z,100912.81
2022-08-16T23:56:26.018Z,100903.75
2022-08-16T23:58:55.989Z,100915.41
